sensor_id;sensor_type;location;lat;lon;timestamp;P1;durP1;ratioP1;P2;durP2;ratioP2
6422;SDS011;3244;42.708;23.288;2024-03-17T00:00:47;25.70;;;16.88;;
6422;SDS011;3244;42.708;23.288;2024-03-17T00:03:13;27.77;;;16.95;;
6422;SDS011;3244;42.708;23.288;2024-03-17T00:05:41;25.88;;;16.05;;
6422;SDS011;3244;42.708;23.288;2024-03-17T00:08:06;28.95;;;17.25;;
6422;SDS011;3244;42.708;23.288;2024-03-17T00:10:33;20.63;;;15.32;;
6422;SDS011;3244;42.708;23.288;2024-03-17T00:12:59;29.80;;;16.63;;
6422;SDS011;3244;42.708;23.288;2024-03-17T00:15:26;21.95;;;16.27;;
6422;SDS011;3244;42.708;23.288;2024-03-17T00:17:51;23.35;;;16.48;;
6422;SDS011;3244;42.708;23.288;2024-03-17T00:20:18;26.50;;;16.65;;
6422;SDS011;3244;42.708;23.288;2024-03-17T00:22:47;24.13;;;15.60;;
6422;SDS011;3244;42.708;23.288;2024-03-17T00:25:13;25.27;;;16.20;;
6422;SDS011;3244;42.708;23.288;2024-03-17T00:27:39;25.48;;;16.02;;
6422;SDS011;3244;42.708;23.288;2024-03-17T00:30:08;27.20;;;16.63;;
6422;SDS011;3244;42.708;23.288;2024-03-17T00:32:37;22.77;;;16.13;;
6422;SDS011;3244;42.708;23.288;2024-03-17T00:35:04;23.85;;;15.43;;
6422;SDS011;3244;42.708;23.288;2024-03-17T00:37:30;23.33;;;15.15;;
6422;SDS011;3244;42.708;23.288;2024-03-17T00:39:58;25.90;;;16.30;;
6422;SDS011;3244;42.708;23.288;2024-03-17T00:42:23;23.25;;;15.88;;
6422;SDS011;3244;42.708;23.288;2024-03-17T00:44:50;25.88;;;15.07;;
6422;SDS011;3244;42.708;23.288;2024-03-17T00:47:15;34.40;;;17.30;;
6422;SDS011;3244;42.708;23.288;2024-03-17T00:49:42;26.83;;;16.35;;
6422;SDS011;3244;42.708;23.288;2024-03-17T00:52:07;25.60;;;16.15;;
6422;SDS011;3244;42.708;23.288;2024-03-17T00:54:34;22.85;;;15.93;;
6422;SDS011;3244;42.708;23.288;2024-03-17T00:57:01;22.38;;;16.13;;
6422;SDS011;3244;42.708;23.288;2024-03-17T00:59:27;23.35;;;16.63;;
6422;SDS011;3244;42.708;23.288;2024-03-17T01:01:53;27.40;;;16.55;;
6422;SDS011;3244;42.708;23.288;2024-03-17T01:04:19;22.33;;;15.40;;
6422;SDS011;3244;42.708;23.288;2024-03-17T01:06:45;23.88;;;15.55;;
6422;SDS011;3244;42.708;23.288;2024-03-17T01:09:12;22.55;;;15.13;;
6422;SDS011;3244;42.708;23.288;2024-03-17T01:11:37;23.83;;;15.57;;
6422;SDS011;3244;42.708;23.288;2024-03-17T01:14:05;21.42;;;14.30;;
6422;SDS011;3244;42.708;23.288;2024-03-17T01:16:32;25.83;;;16.80;;
6422;SDS011;3244;42.708;23.288;2024-03-17T01:18:59;23.52;;;16.27;;
6422;SDS011;3244;42.708;23.288;2024-03-17T01:21:25;21.95;;;15.93;;
6422;SDS011;3244;42.708;23.288;2024-03-17T01:23:52;23.55;;;15.23;;
6422;SDS011;3244;42.708;23.288;2024-03-17T01:26:18;22.58;;;16.02;;
6422;SDS011;3244;42.708;23.288;2024-03-17T01:28:44;28.17;;;15.13;;
6422;SDS011;3244;42.708;23.288;2024-03-17T01:31:11;19.67;;;14.45;;
6422;SDS011;3244;42.708;23.288;2024-03-17T01:33:38;21.48;;;15.95;;
6422;SDS011;3244;42.708;23.288;2024-03-17T01:36:05;25.60;;;15.98;;
6422;SDS011;3244;42.708;23.288;2024-03-17T01:38:32;25.38;;;14.95;;
6422;SDS011;3244;42.708;23.288;2024-03-17T01:40:57;24.13;;;14.38;;
6422;SDS011;3244;42.708;23.288;2024-03-17T01:43:24;24.20;;;16.38;;
6422;SDS011;3244;42.708;23.288;2024-03-17T01:45:49;25.27;;;16.83;;
6422;SDS011;3244;42.708;23.288;2024-03-17T01:48:17;23.60;;;15.50;;
6422;SDS011;3244;42.708;23.288;2024-03-17T01:50:44;24.45;;;17.52;;
6422;SDS011;3244;42.708;23.288;2024-03-17T01:53:13;19.27;;;14.30;;
6422;SDS011;3244;42.708;23.288;2024-03-17T01:55:42;23.63;;;15.43;;
6422;SDS011;3244;42.708;23.288;2024-03-17T01:58:08;23.10;;;15.20;;
6422;SDS011;3244;42.708;23.288;2024-03-17T02:00:35;24.17;;;16.35;;
6422;SDS011;3244;42.708;23.288;2024-03-17T02:03:03;25.38;;;16.08;;
6422;SDS011;3244;42.708;23.288;2024-03-17T02:05:32;25.02;;;14.98;;
6422;SDS011;3244;42.708;23.288;2024-03-17T02:07:59;19.50;;;14.52;;
6422;SDS011;3244;42.708;23.288;2024-03-17T02:10:25;27.58;;;15.80;;
6422;SDS011;3244;42.708;23.288;2024-03-17T02:12:51;22.73;;;16.83;;
6422;SDS011;3244;42.708;23.288;2024-03-17T02:15:18;24.00;;;16.38;;
6422;SDS011;3244;42.708;23.288;2024-03-17T02:17:44;27.08;;;16.30;;
6422;SDS011;3244;42.708;23.288;2024-03-17T02:20:10;25.38;;;17.00;;
6422;SDS011;3244;42.708;23.288;2024-03-17T02:22:40;28.83;;;16.90;;
6422;SDS011;3244;42.708;23.288;2024-03-17T02:25:06;22.85;;;16.08;;
6422;SDS011;3244;42.708;23.288;2024-03-17T02:27:33;29.67;;;16.40;;
6422;SDS011;3244;42.708;23.288;2024-03-17T02:29:59;23.30;;;17.23;;
6422;SDS011;3244;42.708;23.288;2024-03-17T02:32:26;25.33;;;16.45;;
6422;SDS011;3244;42.708;23.288;2024-03-17T02:34:52;28.00;;;16.35;;
6422;SDS011;3244;42.708;23.288;2024-03-17T02:37:19;38.00;;;16.30;;
6422;SDS011;3244;42.708;23.288;2024-03-17T02:39:47;27.70;;;16.17;;
6422;SDS011;3244;42.708;23.288;2024-03-17T02:42:13;27.83;;;16.77;;
6422;SDS011;3244;42.708;23.288;2024-03-17T02:44:39;23.23;;;15.75;;
6422;SDS011;3244;42.708;23.288;2024-03-17T02:47:06;24.23;;;16.75;;
6422;SDS011;3244;42.708;23.288;2024-03-17T02:49:34;23.75;;;16.77;;
6422;SDS011;3244;42.708;23.288;2024-03-17T02:52:04;26.58;;;15.90;;
6422;SDS011;3244;42.708;23.288;2024-03-17T02:54:31;23.33;;;17.55;;
6422;SDS011;3244;42.708;23.288;2024-03-17T02:57:01;26.48;;;16.48;;
6422;SDS011;3244;42.708;23.288;2024-03-17T02:59:28;22.30;;;15.95;;
6422;SDS011;3244;42.708;23.288;2024-03-17T03:01:55;26.10;;;16.00;;
6422;SDS011;3244;42.708;23.288;2024-03-17T03:04:21;29.10;;;17.02;;
6422;SDS011;3244;42.708;23.288;2024-03-17T03:06:48;26.88;;;17.52;;
6422;SDS011;3244;42.708;23.288;2024-03-17T03:09:14;23.38;;;14.95;;
6422;SDS011;3244;42.708;23.288;2024-03-17T03:11:46;26.67;;;16.55;;
6422;SDS011;3244;42.708;23.288;2024-03-17T03:14:14;26.20;;;16.83;;
6422;SDS011;3244;42.708;23.288;2024-03-17T03:16:41;24.60;;;17.17;;
6422;SDS011;3244;42.708;23.288;2024-03-17T03:19:07;29.38;;;17.70;;
6422;SDS011;3244;42.708;23.288;2024-03-17T03:21:33;27.27;;;17.65;;
6422;SDS011;3244;42.708;23.288;2024-03-17T03:23:59;31.60;;;19.70;;
6422;SDS011;3244;42.708;23.288;2024-03-17T03:26:26;29.25;;;18.70;;
6422;SDS011;3244;42.708;23.288;2024-03-17T03:28:53;30.17;;;19.75;;
6422;SDS011;3244;42.708;23.288;2024-03-17T03:31:22;31.58;;;19.50;;
6422;SDS011;3244;42.708;23.288;2024-03-17T03:33:48;33.13;;;19.05;;
6422;SDS011;3244;42.708;23.288;2024-03-17T03:36:15;27.85;;;18.48;;
6422;SDS011;3244;42.708;23.288;2024-03-17T03:38:42;30.08;;;18.58;;
6422;SDS011;3244;42.708;23.288;2024-03-17T03:41:09;31.85;;;19.33;;
6422;SDS011;3244;42.708;23.288;2024-03-17T03:43:37;31.05;;;18.95;;
6422;SDS011;3244;42.708;23.288;2024-03-17T03:46:04;29.02;;;18.17;;
6422;SDS011;3244;42.708;23.288;2024-03-17T03:48:32;28.60;;;19.05;;
6422;SDS011;3244;42.708;23.288;2024-03-17T03:50:59;31.08;;;17.88;;
6422;SDS011;3244;42.708;23.288;2024-03-17T03:53:25;31.67;;;17.08;;
6422;SDS011;3244;42.708;23.288;2024-03-17T03:55:52;31.85;;;18.98;;
6422;SDS011;3244;42.708;23.288;2024-03-17T03:58:19;33.22;;;19.50;;
6422;SDS011;3244;42.708;23.288;2024-03-17T04:00:46;30.10;;;19.35;;
6422;SDS011;3244;42.708;23.288;2024-03-17T04:03:12;30.30;;;18.92;;
6422;SDS011;3244;42.708;23.288;2024-03-17T04:05:40;29.15;;;17.92;;
6422;SDS011;3244;42.708;23.288;2024-03-17T04:08:07;31.10;;;16.98;;
6422;SDS011;3244;42.708;23.288;2024-03-17T04:10:34;32.35;;;17.88;;
6422;SDS011;3244;42.708;23.288;2024-03-17T04:13:01;30.85;;;18.45;;
6422;SDS011;3244;42.708;23.288;2024-03-17T04:15:29;33.65;;;17.85;;
6422;SDS011;3244;42.708;23.288;2024-03-17T04:17:55;26.77;;;19.00;;
6422;SDS011;3244;42.708;23.288;2024-03-17T04:20:21;32.90;;;18.13;;
6422;SDS011;3244;42.708;23.288;2024-03-17T04:22:49;31.20;;;18.15;;
6422;SDS011;3244;42.708;23.288;2024-03-17T04:25:17;30.75;;;17.17;;
6422;SDS011;3244;42.708;23.288;2024-03-17T04:27:44;33.50;;;17.70;;
6422;SDS011;3244;42.708;23.288;2024-03-17T04:30:10;27.17;;;18.33;;
6422;SDS011;3244;42.708;23.288;2024-03-17T04:32:37;33.13;;;18.85;;
6422;SDS011;3244;42.708;23.288;2024-03-17T04:35:02;28.40;;;16.52;;
6422;SDS011;3244;42.708;23.288;2024-03-17T04:37:29;29.23;;;17.88;;
6422;SDS011;3244;42.708;23.288;2024-03-17T04:39:57;26.67;;;18.05;;
6422;SDS011;3244;42.708;23.288;2024-03-17T04:42:24;32.97;;;17.75;;
6422;SDS011;3244;42.708;23.288;2024-03-17T04:44:50;28.63;;;17.33;;
6422;SDS011;3244;42.708;23.288;2024-03-17T04:47:18;26.98;;;16.90;;
6422;SDS011;3244;42.708;23.288;2024-03-17T04:49:44;31.58;;;18.88;;
6422;SDS011;3244;42.708;23.288;2024-03-17T04:52:11;29.05;;;17.90;;
6422;SDS011;3244;42.708;23.288;2024-03-17T04:54:38;30.60;;;16.83;;
6422;SDS011;3244;42.708;23.288;2024-03-17T04:57:08;30.23;;;18.45;;
6422;SDS011;3244;42.708;23.288;2024-03-17T04:59:35;32.47;;;18.27;;
6422;SDS011;3244;42.708;23.288;2024-03-17T05:02:03;27.88;;;17.63;;
6422;SDS011;3244;42.708;23.288;2024-03-17T05:04:31;27.88;;;17.25;;
6422;SDS011;3244;42.708;23.288;2024-03-17T05:06:57;26.45;;;17.50;;
6422;SDS011;3244;42.708;23.288;2024-03-17T05:09:24;28.10;;;18.30;;
6422;SDS011;3244;42.708;23.288;2024-03-17T05:11:51;32.03;;;17.05;;
6422;SDS011;3244;42.708;23.288;2024-03-17T05:14:19;31.75;;;18.77;;
6422;SDS011;3244;42.708;23.288;2024-03-17T05:16:47;29.48;;;18.20;;
6422;SDS011;3244;42.708;23.288;2024-03-17T05:19:15;27.35;;;17.98;;
6422;SDS011;3244;42.708;23.288;2024-03-17T05:21:42;26.70;;;16.95;;
6422;SDS011;3244;42.708;23.288;2024-03-17T05:24:09;27.50;;;16.27;;
6422;SDS011;3244;42.708;23.288;2024-03-17T05:26:35;27.73;;;16.90;;
6422;SDS011;3244;42.708;23.288;2024-03-17T05:29:01;34.67;;;21.83;;
6422;SDS011;3244;42.708;23.288;2024-03-17T05:31:30;32.80;;;19.30;;
6422;SDS011;3244;42.708;23.288;2024-03-17T05:33:56;69.05;;;34.10;;
6422;SDS011;3244;42.708;23.288;2024-03-17T05:36:23;56.65;;;31.23;;
6422;SDS011;3244;42.708;23.288;2024-03-17T05:38:49;39.20;;;22.80;;
6422;SDS011;3244;42.708;23.288;2024-03-17T05:41:16;29.42;;;17.80;;
6422;SDS011;3244;42.708;23.288;2024-03-17T05:43:42;27.75;;;17.92;;
6422;SDS011;3244;42.708;23.288;2024-03-17T05:46:09;38.40;;;19.60;;
6422;SDS011;3244;42.708;23.288;2024-03-17T05:48:37;31.42;;;19.92;;
6422;SDS011;3244;42.708;23.288;2024-03-17T05:51:04;45.53;;;22.63;;
6422;SDS011;3244;42.708;23.288;2024-03-17T05:53:31;43.92;;;22.83;;
6422;SDS011;3244;42.708;23.288;2024-03-17T05:55:58;65.35;;;33.58;;
6422;SDS011;3244;42.708;23.288;2024-03-17T05:58:25;72.30;;;38.80;;
6422;SDS011;3244;42.708;23.288;2024-03-17T06:00:51;39.28;;;26.38;;
6422;SDS011;3244;42.708;23.288;2024-03-17T06:03:18;49.30;;;26.20;;
6422;SDS011;3244;42.708;23.288;2024-03-17T06:05:46;43.25;;;25.02;;
6422;SDS011;3244;42.708;23.288;2024-03-17T06:08:12;28.20;;;18.48;;
6422;SDS011;3244;42.708;23.288;2024-03-17T06:10:42;36.58;;;19.05;;
6422;SDS011;3244;42.708;23.288;2024-03-17T06:13:10;30.17;;;18.50;;
6422;SDS011;3244;42.708;23.288;2024-03-17T06:15:37;26.90;;;17.70;;
6422;SDS011;3244;42.708;23.288;2024-03-17T06:18:04;25.35;;;17.35;;
6422;SDS011;3244;42.708;23.288;2024-03-17T06:20:34;24.52;;;17.42;;
6422;SDS011;3244;42.708;23.288;2024-03-17T06:23:02;24.60;;;16.48;;
6422;SDS011;3244;42.708;23.288;2024-03-17T06:25:29;25.38;;;16.77;;
6422;SDS011;3244;42.708;23.288;2024-03-17T06:27:55;27.00;;;17.23;;
6422;SDS011;3244;42.708;23.288;2024-03-17T06:30:23;19.50;;;16.23;;
6422;SDS011;3244;42.708;23.288;2024-03-17T06:32:49;23.23;;;16.30;;
6422;SDS011;3244;42.708;23.288;2024-03-17T06:35:17;25.35;;;18.25;;
6422;SDS011;3244;42.708;23.288;2024-03-17T06:37:44;24.85;;;16.25;;
6422;SDS011;3244;42.708;23.288;2024-03-17T06:40:13;23.77;;;17.48;;
6422;SDS011;3244;42.708;23.288;2024-03-17T06:42:40;21.15;;;16.80;;
6422;SDS011;3244;42.708;23.288;2024-03-17T06:45:08;36.70;;;23.70;;
6422;SDS011;3244;42.708;23.288;2024-03-17T06:47:34;25.23;;;17.88;;
6422;SDS011;3244;42.708;23.288;2024-03-17T06:50:01;24.40;;;16.65;;
6422;SDS011;3244;42.708;23.288;2024-03-17T06:52:28;23.23;;;17.13;;
6422;SDS011;3244;42.708;23.288;2024-03-17T06:54:55;24.42;;;15.90;;
6422;SDS011;3244;42.708;23.288;2024-03-17T06:57:24;20.25;;;15.05;;
6422;SDS011;3244;42.708;23.288;2024-03-17T06:59:50;19.92;;;15.63;;
6422;SDS011;3244;42.708;23.288;2024-03-17T07:02:17;19.20;;;14.25;;
6422;SDS011;3244;42.708;23.288;2024-03-17T07:04:43;21.92;;;13.18;;
6422;SDS011;3244;42.708;23.288;2024-03-17T07:07:10;17.92;;;11.93;;
6422;SDS011;3244;42.708;23.288;2024-03-17T07:09:37;15.23;;;12.07;;
6422;SDS011;3244;42.708;23.288;2024-03-17T07:12:04;17.83;;;11.57;;
6422;SDS011;3244;42.708;23.288;2024-03-17T07:14:32;11.50;;;10.40;;
6422;SDS011;3244;42.708;23.288;2024-03-17T07:16:58;10.93;;;9.82;;
6422;SDS011;3244;42.708;23.288;2024-03-17T07:19:24;11.32;;;9.60;;
6422;SDS011;3244;42.708;23.288;2024-03-17T07:21:51;13.02;;;9.45;;
6422;SDS011;3244;42.708;23.288;2024-03-17T07:24:17;12.05;;;10.93;;
6422;SDS011;3244;42.708;23.288;2024-03-17T07:26:44;11.23;;;10.13;;
6422;SDS011;3244;42.708;23.288;2024-03-17T07:29:10;14.10;;;11.63;;
6422;SDS011;3244;42.708;23.288;2024-03-17T07:31:38;14.10;;;10.82;;
6422;SDS011;3244;42.708;23.288;2024-03-17T07:34:05;19.10;;;13.45;;
6422;SDS011;3244;42.708;23.288;2024-03-17T07:36:32;16.20;;;12.90;;
6422;SDS011;3244;42.708;23.288;2024-03-17T07:38:58;13.88;;;11.63;;
6422;SDS011;3244;42.708;23.288;2024-03-17T07:41:25;15.02;;;11.88;;
6422;SDS011;3244;42.708;23.288;2024-03-17T07:43:51;26.58;;;11.88;;
6422;SDS011;3244;42.708;23.288;2024-03-17T07:46:18;12.02;;;10.68;;
6422;SDS011;3244;42.708;23.288;2024-03-17T07:48:45;10.45;;;9.05;;
6422;SDS011;3244;42.708;23.288;2024-03-17T07:51:13;11.02;;;8.38;;
6422;SDS011;3244;42.708;23.288;2024-03-17T07:53:42;12.95;;;8.15;;
6422;SDS011;3244;42.708;23.288;2024-03-17T07:56:10;11.00;;;9.30;;
6422;SDS011;3244;42.708;23.288;2024-03-17T07:58:37;13.38;;;9.10;;
6422;SDS011;3244;42.708;23.288;2024-03-17T08:01:05;11.82;;;9.13;;
6422;SDS011;3244;42.708;23.288;2024-03-17T08:03:34;9.00;;;7.63;;
6422;SDS011;3244;42.708;23.288;2024-03-17T08:06:05;14.23;;;7.32;;
6422;SDS011;3244;42.708;23.288;2024-03-17T08:08:33;12.23;;;7.38;;
6422;SDS011;3244;42.708;23.288;2024-03-17T08:11:00;13.15;;;7.60;;
6422;SDS011;3244;42.708;23.288;2024-03-17T08:13:28;9.15;;;7.93;;
6422;SDS011;3244;42.708;23.288;2024-03-17T08:15:59;9.02;;;7.78;;
6422;SDS011;3244;42.708;23.288;2024-03-17T08:18:27;12.93;;;8.85;;
6422;SDS011;3244;42.708;23.288;2024-03-17T08:20:54;9.65;;;8.48;;
6422;SDS011;3244;42.708;23.288;2024-03-17T08:23:22;10.57;;;9.48;;
6422;SDS011;3244;42.708;23.288;2024-03-17T08:25:52;9.88;;;8.10;;
6422;SDS011;3244;42.708;23.288;2024-03-17T08:28:18;11.10;;;8.80;;
6422;SDS011;3244;42.708;23.288;2024-03-17T08:30:50;9.45;;;8.52;;
6422;SDS011;3244;42.708;23.288;2024-03-17T08:33:16;9.40;;;8.25;;
6422;SDS011;3244;42.708;23.288;2024-03-17T08:35:51;8.93;;;8.13;;
6422;SDS011;3244;42.708;23.288;2024-03-17T08:38:18;8.65;;;7.85;;
6422;SDS011;3244;42.708;23.288;2024-03-17T08:40:46;9.20;;;8.32;;
6422;SDS011;3244;42.708;23.288;2024-03-17T08:43:13;9.15;;;8.30;;
6422;SDS011;3244;42.708;23.288;2024-03-17T08:45:40;9.48;;;8.57;;
6422;SDS011;3244;42.708;23.288;2024-03-17T08:48:06;8.95;;;8.15;;
6422;SDS011;3244;42.708;23.288;2024-03-17T08:50:33;8.75;;;7.65;;
6422;SDS011;3244;42.708;23.288;2024-03-17T08:52:59;7.80;;;7.10;;
6422;SDS011;3244;42.708;23.288;2024-03-17T08:55:26;8.80;;;8.05;;
6422;SDS011;3244;42.708;23.288;2024-03-17T08:57:54;8.88;;;8.05;;
6422;SDS011;3244;42.708;23.288;2024-03-17T09:00:21;8.20;;;7.22;;
6422;SDS011;3244;42.708;23.288;2024-03-17T09:02:47;9.27;;;7.63;;
6422;SDS011;3244;42.708;23.288;2024-03-17T09:05:14;8.55;;;7.85;;
6422;SDS011;3244;42.708;23.288;2024-03-17T09:07:40;10.20;;;7.55;;
6422;SDS011;3244;42.708;23.288;2024-03-17T09:10:07;9.00;;;8.10;;
6422;SDS011;3244;42.708;23.288;2024-03-17T09:12:34;11.43;;;9.00;;
6422;SDS011;3244;42.708;23.288;2024-03-17T09:15:03;15.57;;;9.15;;
6422;SDS011;3244;42.708;23.288;2024-03-17T09:17:30;15.30;;;9.00;;
6422;SDS011;3244;42.708;23.288;2024-03-17T09:19:56;10.73;;;9.27;;
6422;SDS011;3244;42.708;23.288;2024-03-17T09:22:23;9.23;;;8.43;;
6422;SDS011;3244;42.708;23.288;2024-03-17T09:24:50;8.85;;;7.97;;
6422;SDS011;3244;42.708;23.288;2024-03-17T09:27:16;8.10;;;7.38;;
6422;SDS011;3244;42.708;23.288;2024-03-17T09:29:45;8.10;;;7.40;;
6422;SDS011;3244;42.708;23.288;2024-03-17T09:32:13;9.93;;;7.90;;
6422;SDS011;3244;42.708;23.288;2024-03-17T09:34:42;8.43;;;7.78;;
6422;SDS011;3244;42.708;23.288;2024-03-17T09:37:09;8.80;;;7.65;;
6422;SDS011;3244;42.708;23.288;2024-03-17T09:39:35;7.65;;;7.00;;
6422;SDS011;3244;42.708;23.288;2024-03-17T09:42:02;8.38;;;7.68;;
6422;SDS011;3244;42.708;23.288;2024-03-17T09:44:29;7.50;;;6.90;;
6422;SDS011;3244;42.708;23.288;2024-03-17T09:46:56;7.07;;;6.47;;
6422;SDS011;3244;42.708;23.288;2024-03-17T09:49:24;6.93;;;5.38;;
6422;SDS011;3244;42.708;23.288;2024-03-17T09:51:51;5.32;;;4.82;;
6422;SDS011;3244;42.708;23.288;2024-03-17T09:54:19;6.22;;;5.63;;
6422;SDS011;3244;42.708;23.288;2024-03-17T09:56:46;6.22;;;5.47;;
6422;SDS011;3244;42.708;23.288;2024-03-17T09:59:12;6.68;;;6.18;;
6422;SDS011;3244;42.708;23.288;2024-03-17T10:01:39;6.20;;;5.70;;
6422;SDS011;3244;42.708;23.288;2024-03-17T10:04:05;5.55;;;5.18;;
6422;SDS011;3244;42.708;23.288;2024-03-17T10:06:43;5.93;;;5.53;;
6422;SDS011;3244;42.708;23.288;2024-03-17T10:09:13;6.88;;;6.32;;
6422;SDS011;3244;42.708;23.288;2024-03-17T10:11:46;7.65;;;6.95;;
6422;SDS011;3244;42.708;23.288;2024-03-17T10:14:12;6.15;;;5.68;;
6422;SDS011;3244;42.708;23.288;2024-03-17T10:16:41;6.03;;;4.82;;
6422;SDS011;3244;42.708;23.288;2024-03-17T10:19:10;6.05;;;5.53;;
6422;SDS011;3244;42.708;23.288;2024-03-17T10:21:38;9.27;;;6.65;;
6422;SDS011;3244;42.708;23.288;2024-03-17T10:24:06;5.10;;;4.72;;
6422;SDS011;3244;42.708;23.288;2024-03-17T10:26:36;5.18;;;4.68;;
6422;SDS011;3244;42.708;23.288;2024-03-17T10:29:02;5.32;;;4.78;;
6422;SDS011;3244;42.708;23.288;2024-03-17T10:31:29;5.40;;;5.00;;
6422;SDS011;3244;42.708;23.288;2024-03-17T10:34:00;4.57;;;4.22;;
6422;SDS011;3244;42.708;23.288;2024-03-17T10:36:27;5.43;;;4.97;;
6422;SDS011;3244;42.708;23.288;2024-03-17T10:38:55;6.38;;;4.80;;
6422;SDS011;3244;42.708;23.288;2024-03-17T10:41:21;4.97;;;4.47;;
6422;SDS011;3244;42.708;23.288;2024-03-17T10:43:49;5.90;;;4.07;;
6422;SDS011;3244;42.708;23.288;2024-03-17T10:46:16;4.70;;;4.32;;
6422;SDS011;3244;42.708;23.288;2024-03-17T10:48:43;4.72;;;4.32;;
6422;SDS011;3244;42.708;23.288;2024-03-17T10:51:10;5.18;;;4.78;;
6422;SDS011;3244;42.708;23.288;2024-03-17T10:53:42;5.10;;;4.65;;
6422;SDS011;3244;42.708;23.288;2024-03-17T10:56:11;4.78;;;4.38;;
6422;SDS011;3244;42.708;23.288;2024-03-17T10:58:39;4.95;;;4.45;;
6422;SDS011;3244;42.708;23.288;2024-03-17T11:01:13;10.50;;;4.88;;
6422;SDS011;3244;42.708;23.288;2024-03-17T11:03:40;5.18;;;4.78;;
6422;SDS011;3244;42.708;23.288;2024-03-17T11:06:08;7.05;;;4.53;;
6422;SDS011;3244;42.708;23.288;2024-03-17T11:08:35;4.68;;;4.38;;
6422;SDS011;3244;42.708;23.288;2024-03-17T11:11:02;5.13;;;4.72;;
6422;SDS011;3244;42.708;23.288;2024-03-17T11:13:31;4.85;;;3.80;;
6422;SDS011;3244;42.708;23.288;2024-03-17T11:15:58;3.88;;;3.47;;
6422;SDS011;3244;42.708;23.288;2024-03-17T11:18:36;3.97;;;3.67;;
6422;SDS011;3244;42.708;23.288;2024-03-17T11:21:04;3.78;;;3.50;;
6422;SDS011;3244;42.708;23.288;2024-03-17T11:23:54;4.95;;;4.47;;
6422;SDS011;3244;42.708;23.288;2024-03-17T11:26:26;3.80;;;3.60;;
6422;SDS011;3244;42.708;23.288;2024-03-17T11:28:54;3.33;;;3.13;;
6422;SDS011;3244;42.708;23.288;2024-03-17T11:31:36;3.53;;;3.20;;
6422;SDS011;3244;42.708;23.288;2024-03-17T11:36:55;3.80;;;3.58;;
6422;SDS011;3244;42.708;23.288;2024-03-17T11:42:04;5.65;;;3.95;;
6422;SDS011;3244;42.708;23.288;2024-03-17T11:44:37;4.50;;;4.20;;
6422;SDS011;3244;42.708;23.288;2024-03-17T11:47:04;4.70;;;4.30;;
6422;SDS011;3244;42.708;23.288;2024-03-17T11:49:31;4.05;;;3.75;;
6422;SDS011;3244;42.708;23.288;2024-03-17T11:52:01;4.63;;;4.20;;
6422;SDS011;3244;42.708;23.288;2024-03-17T11:54:28;4.35;;;4.05;;
6422;SDS011;3244;42.708;23.288;2024-03-17T11:57:00;4.00;;;3.58;;
6422;SDS011;3244;42.708;23.288;2024-03-17T11:59:25;4.40;;;3.95;;
6422;SDS011;3244;42.708;23.288;2024-03-17T12:01:53;4.07;;;3.63;;
6422;SDS011;3244;42.708;23.288;2024-03-17T12:04:19;5.13;;;4.72;;
6422;SDS011;3244;42.708;23.288;2024-03-17T12:06:48;5.60;;;4.45;;
6422;SDS011;3244;42.708;23.288;2024-03-17T12:09:17;4.88;;;4.57;;
6422;SDS011;3244;42.708;23.288;2024-03-17T12:11:47;6.03;;;5.57;;
6422;SDS011;3244;42.708;23.288;2024-03-17T12:14:15;6.40;;;5.88;;
6422;SDS011;3244;42.708;23.288;2024-03-17T12:16:48;5.43;;;4.15;;
6422;SDS011;3244;42.708;23.288;2024-03-17T12:19:18;4.85;;;4.45;;
6422;SDS011;3244;42.708;23.288;2024-03-17T12:21:47;5.13;;;4.70;;
6422;SDS011;3244;42.708;23.288;2024-03-17T12:24:15;4.10;;;3.80;;
6422;SDS011;3244;42.708;23.288;2024-03-17T12:26:44;5.38;;;4.93;;
6422;SDS011;3244;42.708;23.288;2024-03-17T12:29:24;5.25;;;4.75;;
6422;SDS011;3244;42.708;23.288;2024-03-17T12:31:51;4.53;;;4.20;;
6422;SDS011;3244;42.708;23.288;2024-03-17T12:34:16;5.05;;;4.75;;
6422;SDS011;3244;42.708;23.288;2024-03-17T12:36:44;4.75;;;4.45;;
6422;SDS011;3244;42.708;23.288;2024-03-17T12:39:10;5.38;;;5.00;;
6422;SDS011;3244;42.708;23.288;2024-03-17T12:41:37;5.65;;;5.25;;
6422;SDS011;3244;42.708;23.288;2024-03-17T12:44:02;5.18;;;4.75;;
6422;SDS011;3244;42.708;23.288;2024-03-17T12:46:30;6.38;;;5.95;;
6422;SDS011;3244;42.708;23.288;2024-03-17T12:48:58;6.15;;;5.55;;
6422;SDS011;3244;42.708;23.288;2024-03-17T12:51:25;7.63;;;6.47;;
6422;SDS011;3244;42.708;23.288;2024-03-17T12:53:52;5.40;;;5.03;;
6422;SDS011;3244;42.708;23.288;2024-03-17T12:56:37;9.55;;;7.20;;
6422;SDS011;3244;42.708;23.288;2024-03-17T12:59:21;8.95;;;5.70;;
6422;SDS011;3244;42.708;23.288;2024-03-17T13:02:06;6.78;;;6.18;;
6422;SDS011;3244;42.708;23.288;2024-03-17T13:04:37;6.32;;;5.82;;
6422;SDS011;3244;42.708;23.288;2024-03-17T13:07:09;6.00;;;5.47;;
6422;SDS011;3244;42.708;23.288;2024-03-17T13:09:37;4.82;;;4.53;;
6422;SDS011;3244;42.708;23.288;2024-03-17T13:12:11;9.65;;;8.63;;
6422;SDS011;3244;42.708;23.288;2024-03-17T13:14:38;6.63;;;6.03;;
6422;SDS011;3244;42.708;23.288;2024-03-17T13:17:05;8.13;;;6.45;;
6422;SDS011;3244;42.708;23.288;2024-03-17T13:19:33;9.02;;;7.00;;
6422;SDS011;3244;42.708;23.288;2024-03-17T13:22:01;7.25;;;6.13;;
6422;SDS011;3244;42.708;23.288;2024-03-17T13:24:27;7.78;;;6.60;;
6422;SDS011;3244;42.708;23.288;2024-03-17T13:26:55;6.22;;;5.68;;
6422;SDS011;3244;42.708;23.288;2024-03-17T13:29:27;8.23;;;6.45;;
6422;SDS011;3244;42.708;23.288;2024-03-17T13:31:53;9.40;;;6.57;;
6422;SDS011;3244;42.708;23.288;2024-03-17T13:34:19;7.45;;;6.72;;
6422;SDS011;3244;42.708;23.288;2024-03-17T13:36:46;11.15;;;7.78;;
6422;SDS011;3244;42.708;23.288;2024-03-17T13:39:12;9.35;;;7.80;;
6422;SDS011;3244;42.708;23.288;2024-03-17T13:41:40;8.95;;;6.55;;
6422;SDS011;3244;42.708;23.288;2024-03-17T13:44:08;16.08;;;7.88;;
6422;SDS011;3244;42.708;23.288;2024-03-17T13:46:34;8.40;;;7.60;;
6422;SDS011;3244;42.708;23.288;2024-03-17T13:49:06;7.65;;;6.65;;
6422;SDS011;3244;42.708;23.288;2024-03-17T13:51:33;8.02;;;7.28;;
6422;SDS011;3244;42.708;23.288;2024-03-17T13:53:59;8.80;;;7.90;;
6422;SDS011;3244;42.708;23.288;2024-03-17T13:56:26;7.50;;;6.80;;
6422;SDS011;3244;42.708;23.288;2024-03-17T13:58:52;8.73;;;6.63;;
6422;SDS011;3244;42.708;23.288;2024-03-17T14:01:20;7.45;;;6.38;;
6422;SDS011;3244;42.708;23.288;2024-03-17T14:03:46;11.02;;;6.50;;
6422;SDS011;3244;42.708;23.288;2024-03-17T14:06:13;7.85;;;6.75;;
6422;SDS011;3244;42.708;23.288;2024-03-17T14:08:39;6.93;;;6.25;;
6422;SDS011;3244;42.708;23.288;2024-03-17T14:11:06;11.18;;;6.47;;
6422;SDS011;3244;42.708;23.288;2024-03-17T14:13:32;7.68;;;6.43;;
6422;SDS011;3244;42.708;23.288;2024-03-17T14:15:59;8.45;;;6.65;;
6422;SDS011;3244;42.708;23.288;2024-03-17T14:18:27;7.30;;;6.68;;
6422;SDS011;3244;42.708;23.288;2024-03-17T14:20:53;8.27;;;6.43;;
6422;SDS011;3244;42.708;23.288;2024-03-17T14:23:19;8.65;;;7.15;;
6422;SDS011;3244;42.708;23.288;2024-03-17T14:25:46;6.43;;;5.93;;
6422;SDS011;3244;42.708;23.288;2024-03-17T14:28:13;8.70;;;7.80;;
6422;SDS011;3244;42.708;23.288;2024-03-17T14:30:39;7.97;;;6.65;;
6422;SDS011;3244;42.708;23.288;2024-03-17T14:33:06;7.25;;;6.65;;
6422;SDS011;3244;42.708;23.288;2024-03-17T14:35:34;8.15;;;6.60;;
6422;SDS011;3244;42.708;23.288;2024-03-17T14:38:01;7.68;;;6.63;;
6422;SDS011;3244;42.708;23.288;2024-03-17T14:40:29;13.30;;;6.88;;
6422;SDS011;3244;42.708;23.288;2024-03-17T14:42:56;12.25;;;7.20;;
6422;SDS011;3244;42.708;23.288;2024-03-17T14:45:22;8.30;;;7.47;;
6422;SDS011;3244;42.708;23.288;2024-03-17T14:47:49;7.78;;;7.07;;
6422;SDS011;3244;42.708;23.288;2024-03-17T14:50:17;6.55;;;5.90;;
6422;SDS011;3244;42.708;23.288;2024-03-17T14:52:45;8.25;;;7.45;;